Time,TemperatureF,DewpointF,PressureIn,WindDirection,WindDirectionDegrees,WindSpeedMPH,WindSpeedGustMPH,Humidity,HourlyPrecipIn,Conditions,Clouds,dailyrainin,SoftwareType,DateUTC
2013-12-18 00:04:00,62.6,41.5,30.07,NNW,337,0.0,0.0,46,0.00,,,0.00,WUHU216WMR968SP,2013-12-18 08:04:00,
2013-12-18 00:09:00,62.6,41.5,30.07,North,357,0.0,0.0,46,0.00,,,0.00,WUHU216WMR968SP,2013-12-18 08:09:00,
2013-12-18 00:14:00,62.8,41.7,30.07,WNW,303,2.7,5.4,46,0.00,,,0.00,WUHU216WMR968SP,2013-12-18 08:14:00,
2013-12-18 00:19:00,62.8,41.7,30.07,NNE,12,0.0,5.4,46,0.00,,,0.00,WUHU216WMR968SP,2013-12-18 08:19:00,
2013-12-18 00:24:00,63.0,41.8,30.07,SE,134,0.0,3.6,46,0.00,,,0.00,WUHU216WMR968SP,2013-12-18 08:24:00,
2013-12-18 00:29:00,63.0,41.8,30.07,NE,48,0.0,3.6,46,0.00,,,0.00,WUHU216WMR968SP,2013-12-18 08:29:00,
2013-12-18 00:34:00,63.0,41.8,30.07,NNE,13,0.0,3.6,46,0.00,,,0.00,WUHU216WMR968SP,2013-12-18 08:34:00,
2013-12-18 00:39:00,63.3,42.1,30.07,ESE,108,0.0,3.6,46,0.00,,,0.00,WUHU216WMR968SP,2013-12-18 08:39:00,
2013-12-18 00:44:00,63.5,42.3,30.04,ESE,108,0.0,4.0,46,0.00,,,0.00,WUHU216WMR968SP,2013-12-18 08:44:00,
2013-12-18 00:49:00,63.9,42.7,30.04,WSW,248,0.0,4.0,46,0.00,,,0.00,WUHU216WMR968SP,2013-12-18 08:49:00,
2013-12-18 00:54:00,63.9,42.7,30.04,ESE,109,3.6,4.0,46,0.00,,,0.00,WUHU216WMR968SP,2013-12-18 08:54:00,
2013-12-18 00:59:00,63.9,42.7,30.04,ESE,109,0.0,4.0,46,0.00,,,0.00,WUHU216WMR968SP,2013-12-18 08:59:00,
2013-12-18 01:04:00,63.9,42.7,30.04,NNE,28,0.0,3.6,46,0.00,,,0.00,WUHU216WMR968SP,2013-12-18 09:04:00,
2013-12-18 01:09:00,64.0,42.8,30.04,NNE,28,0.0,3.1,46,0.00,,,0.00,WUHU216WMR968SP,2013-12-18 09:09:00,
2013-12-18 01:14:00,64.0,42.8,30.04,WSW,252,0.0,3.6,46,0.00,,,0.00,WUHU216WMR968SP,2013-12-18 09:14:00,
2013-12-18 01:19:00,64.0,42.8,30.04,WSW,252,0.0,3.6,46,0.00,,,0.00,WUHU216WMR968SP,2013-12-18 09:19:00,
2013-12-18 01:24:00,63.9,42.7,30.04,SW,235,0.0,2.7,46,0.00,,,0.00,WUHU216WMR968SP,2013-12-18 09:24:00,
2013-12-18 01:29:00,63.9,42.7,30.04,SE,127,0.0,0.0,46,0.00,,,0.00,WUHU216WMR968SP,2013-12-18 09:29:00,
2013-12-18 01:34:00,63.9,42.7,30.04,ESE,121,0.0,0.0,46,0.00,,,0.00,WUHU216WMR968SP,2013-12-18 09:34:00,
2013-12-18 01:39:00,63.9,42.7,30.04,ENE,76,0.0,3.1,46,0.00,,,0.00,WUHU216WMR968SP,2013-12-18 09:39:00,
2013-12-18 01:44:00,63.9,42.7,30.04,North,11,2.2,3.6,46,0.00,,,0.00,WUHU216WMR968SP,2013-12-18 09:44:00,
2013-12-18 01:49:00,63.9,42.7,30.04,North,11,0.0,3.6,46,0.00,,,0.00,WUHU216WMR968SP,2013-12-18 09:49:00,
2013-12-18 01:54:00,63.9,42.7,30.04,East,86,0.0,2.7,46,0.00,,,0.00,WUHU216WMR968SP,2013-12-18 09:54:00,
2013-12-18 01:59:00,63.9,42.7,30.04,North,10,2.2,3.6,46,0.00,,,0.00,WUHU216WMR968SP,2013-12-18 09:59:00,
2013-12-18 02:04:00,64.8,42.9,30.04,North,11,2.2,4.0,45,0.00,,,0.00,WUHU216WMR968SP,2013-12-18 10:04:00,
2013-12-18 02:09:00,64.9,43.0,30.04,East,86,0.0,4.0,45,0.00,,,0.00,WUHU216WMR968SP,2013-12-18 10:09:00,
2013-12-18 02:14:00,64.9,43.0,30.04,East,86,0.0,3.6,45,0.00,,,0.00,WUHU216WMR968SP,2013-12-18 10:14:00,
2013-12-18 02:19:00,64.8,42.9,30.04,SW,214,0.0,3.6,45,0.00,,,0.00,WUHU216WMR968SP,2013-12-18 10:19:00,
2013-12-18 02:24:00,64.4,42.5,30.04,West,261,0.0,3.6,45,0.00,,,0.00,WUHU216WMR968SP,2013-12-18 10:24:00,
2013-12-18 02:29:00,64.0,42.8,30.04,SSW,209,0.0,3.6,46,0.00,,,0.00,WUHU216WMR968SP,2013-12-18 10:29:00,
2013-12-18 02:34:00,63.7,42.5,30.04,ENE,63,0.0,4.0,46,0.00,,,0.00,WUHU216WMR968SP,2013-12-18 10:34:00,
2013-12-18 02:39:00,63.0,41.8,30.04,ENE,62,0.0,4.0,46,0.00,,,0.00,WUHU216WMR968SP,2013-12-18 10:39:00,
2013-12-18 02:44:00,62.6,41.5,30.04,ENE,63,0.0,0.0,46,0.00,,,0.00,WUHU216WMR968SP,2013-12-18 10:44:00,
2013-12-18 02:49:00,62.2,41.1,30.04,ENE,62,0.0,0.0,46,0.00,,,0.00,WUHU216WMR968SP,2013-12-18 10:49:00,
2013-12-18 02:54:00,61.9,40.8,30.04,ENE,62,0.0,0.0,46,0.00,,,0.00,WUHU216WMR968SP,2013-12-18 10:54:00,
2013-12-18 02:59:00,61.7,40.7,30.04,ENE,63,0.0,0.0,46,0.00,,,0.00,WUHU216WMR968SP,2013-12-18 10:59:00,
2013-12-18 03:04:00,61.5,40.5,30.04,NNW,337,0.0,0.0,46,0.00,,,0.00,WUHU216WMR968SP,2013-12-18 11:04:00,
2013-12-18 03:09:00,61.5,40.5,30.04,NNW,337,3.1,4.0,46,0.00,,,0.00,WUHU216WMR968SP,2013-12-18 11:09:00,
2013-12-18 03:14:00,61.3,40.3,30.04,SW,217,3.1,4.0,46,0.00,,,0.00,WUHU216WMR968SP,2013-12-18 11:14:00,
2013-12-18 03:19:00,61.3,40.3,30.04,WSW,256,0.0,4.9,46,0.00,,,0.00,WUHU216WMR968SP,2013-12-18 11:19:00,
2013-12-18 03:24:00,61.3,40.3,30.04,North,5,0.0,4.9,46,0.00,,,0.00,WUHU216WMR968SP,2013-12-18 11:24:00,
2013-12-18 03:29:00,61.2,40.2,30.04,North,5,0.0,0.0,46,0.00,,,0.00,WUHU216WMR968SP,2013-12-18 11:29:00,
2013-12-18 03:34:00,61.0,40.0,30.04,North,5,0.0,0.0,46,0.00,,,0.00,WUHU216WMR968SP,2013-12-18 11:34:00,
2013-12-18 03:39:00,61.0,40.0,30.04,North,5,0.0,3.1,46,0.00,,,0.00,WUHU216WMR968SP,2013-12-18 11:39:00,
2013-12-18 03:44:00,61.3,40.3,30.04,NNE,14,3.1,3.6,46,0.00,,,0.00,WUHU216WMR968SP,2013-12-18 11:44:00,
2013-12-18 03:49:00,61.9,40.8,30.04,NNE,19,0.0,4.9,46,0.00,,,0.00,WUHU216WMR968SP,2013-12-18 11:49:00,
2013-12-18 03:54:00,62.8,41.7,30.04,NNE,18,0.0,4.9,46,0.00,,,0.00,WUHU216WMR968SP,2013-12-18 11:54:00,
2013-12-18 03:59:00,63.0,41.8,30.04,WNW,297,0.0,4.0,46,0.00,,,0.00,WUHU216WMR968SP,2013-12-18 11:59:00,
2013-12-18 04:04:00,62.8,41.7,30.04,East,88,0.0,2.7,46,0.00,,,0.00,WUHU216WMR968SP,2013-12-18 12:04:00,
2013-12-18 04:09:00,62.8,41.7,30.04,East,87,0.0,0.0,46,0.00,,,0.00,WUHU216WMR968SP,2013-12-18 12:09:00,
2013-12-18 04:15:00,62.6,41.5,30.01,East,87,0.0,0.0,46,0.00,,,0.00,WUHU216WMR968SP,2013-12-18 12:15:00,
2013-12-18 04:20:00,62.4,41.3,30.01,South,183,0.0,3.1,46,0.00,,,0.00,WUHU216WMR968SP,2013-12-18 12:20:00,
2013-12-18 04:25:00,62.2,41.1,30.01,North,353,2.2,3.6,46,0.00,,,0.00,WUHU216WMR968SP,2013-12-18 12:25:00,
2013-12-18 04:30:00,62.2,41.1,30.01,North,5,0.0,3.6,46,0.00,,,0.00,WUHU216WMR968SP,2013-12-18 12:30:00,
2013-12-18 04:35:00,62.2,41.1,30.01,SSE,164,0.0,2.7,46,0.00,,,0.00,WUHU216WMR968SP,2013-12-18 12:35:00,
2013-12-18 04:40:00,62.2,41.1,30.01,South,183,0.0,2.7,46,0.00,,,0.00,WUHU216WMR968SP,2013-12-18 12:40:00,
2013-12-18 04:45:00,62.1,41.0,30.01,South,183,0.0,2.7,46,0.00,,,0.00,WUHU216WMR968SP,2013-12-18 12:45:00,
2013-12-18 04:50:00,61.7,40.7,30.01,South,182,0.0,0.0,46,0.00,,,0.00,WUHU216WMR968SP,2013-12-18 12:50:00,
2013-12-18 04:55:00,61.2,40.2,30.01,WNW,286,0.0,0.0,46,0.00,,,0.00,WUHU216WMR968SP,2013-12-18 12:55:00,
2013-12-18 05:00:00,60.6,40.2,30.01,WNW,286,0.0,0.0,47,0.00,,,0.00,WUHU216WMR968SP,2013-12-18 13:00:00,
2013-12-18 05:05:00,60.1,39.8,30.01,WNW,286,0.0,0.0,47,0.00,,,0.00,WUHU216WMR968SP,2013-12-18 13:05:00,
2013-12-18 05:10:00,59.7,39.4,30.01,WNW,286,0.0,0.0,47,0.00,,,0.00,WUHU216WMR968SP,2013-12-18 13:10:00,
2013-12-18 05:15:00,59.4,39.1,30.01,NW,313,0.0,0.0,47,0.00,,,0.00,WUHU216WMR968SP,2013-12-18 13:15:00,
2013-12-18 05:20:00,59.2,38.9,30.01,NW,313,0.0,0.0,47,0.00,,,0.00,WUHU216WMR968SP,2013-12-18 13:20:00,
2013-12-18 05:25:00,59.0,38.7,30.01,NW,313,0.0,0.0,47,0.00,,,0.00,WUHU216WMR968SP,2013-12-18 13:25:00,
2013-12-18 05:30:00,58.8,38.6,30.04,NW,313,0.0,0.0,47,0.00,,,0.00,WUHU216WMR968SP,2013-12-18 13:30:00,
2013-12-18 05:35:00,58.6,38.4,30.04,NW,313,0.0,0.0,47,0.00,,,0.00,WUHU216WMR968SP,2013-12-18 13:35:00,
2013-12-18 05:40:00,58.6,38.4,30.04,NW,313,0.0,0.0,47,0.00,,,0.00,WUHU216WMR968SP,2013-12-18 13:40:00,
2013-12-18 05:45:00,58.6,38.4,30.04,NW,313,0.0,0.0,47,0.00,,,0.00,WUHU216WMR968SP,2013-12-18 13:45:00,
2013-12-18 05:50:00,57.9,37.7,30.04,NW,313,0.0,0.0,47,0.00,,,0.00,WUHU216WMR968SP,2013-12-18 13:50:00,
2013-12-18 05:55:00,57.7,37.6,30.04,NW,313,0.0,0.0,47,0.00,,,0.00,WUHU216WMR968SP,2013-12-18 13:55:00,
2013-12-18 06:00:00,57.7,37.6,30.04,North,6,0.0,0.0,47,0.00,,,0.00,WUHU216WMR968SP,2013-12-18 14:00:00,
2013-12-18 06:05:00,58.1,37.9,30.04,North,6,0.0,0.0,47,0.00,,,0.00,WUHU216WMR968SP,2013-12-18 14:05:00,
2013-12-18 06:10:00,57.9,37.7,30.04,South,176,0.0,3.1,47,0.00,,,0.00,WUHU216WMR968SP,2013-12-18 14:10:00,
2013-12-18 06:15:00,57.9,37.7,30.04,WSW,242,0.0,3.1,47,0.00,,,0.00,WUHU216WMR968SP,2013-12-18 14:15:00,
2013-12-18 06:20:00,57.7,37.6,30.04,North,353,0.0,3.1,47,0.00,,,0.00,WUHU216WMR968SP,2013-12-18 14:20:00,
2013-12-18 06:25:00,57.6,37.5,30.04,North,353,0.0,0.0,47,0.00,,,0.00,WUHU216WMR968SP,2013-12-18 14:25:00,
2013-12-18 06:30:00,57.6,37.5,30.04,NW,308,0.0,2.7,47,0.00,,,0.00,WUHU216WMR968SP,2013-12-18 14:30:00,
2013-12-18 06:35:00,57.4,37.3,30.04,NW,310,0.0,3.6,47,0.00,,,0.00,WUHU216WMR968SP,2013-12-18 14:35:00,
2013-12-18 06:40:00,57.4,37.3,30.04,NW,310,0.0,3.6,47,0.00,,,0.00,WUHU216WMR968SP,2013-12-18 14:40:00,
2013-12-18 06:45:00,57.4,37.3,30.04,NW,310,0.0,0.0,47,0.00,,,0.00,WUHU216WMR968SP,2013-12-18 14:45:00,
2013-12-18 06:50:00,57.4,37.3,30.04,NW,310,0.0,0.0,47,0.00,,,0.00,WUHU216WMR968SP,2013-12-18 14:50:00,
2013-12-18 06:55:00,57.4,37.3,30.04,NW,310,0.0,0.0,47,0.00,,,0.00,WUHU216WMR968SP,2013-12-18 14:55:00,
2013-12-18 07:00:00,57.6,37.5,30.04,NW,310,0.0,0.0,47,0.00,,,0.00,WUHU216WMR968SP,2013-12-18 15:00:00,
2013-12-18 07:05:00,57.7,37.6,30.04,NNW,334,0.0,0.0,47,0.00,,,0.00,WUHU216WMR968SP,2013-12-18 15:05:00,
2013-12-18 07:10:00,58.1,37.9,30.04,NW,309,0.0,3.6,47,0.00,,,0.00,WUHU216WMR968SP,2013-12-18 15:10:00,
2013-12-18 07:15:00,58.1,37.9,30.07,NW,316,0.0,3.6,47,0.00,,,0.00,WUHU216WMR968SP,2013-12-18 15:15:00,
2013-12-18 07:20:00,57.9,38.8,30.07,NW,316,0.0,0.0,49,0.00,,,0.00,WUHU216WMR968SP,2013-12-18 15:20:00,
2013-12-18 07:25:00,57.7,38.6,30.07,NE,44,0.0,0.0,49,0.00,,,0.00,WUHU216WMR968SP,2013-12-18 15:25:00,
2013-12-18 07:30:00,57.7,38.6,30.07,NE,34,2.7,3.6,49,0.00,,,0.00,WUHU216WMR968SP,2013-12-18 15:30:00,
2013-12-18 07:35:00,57.9,38.8,30.07,NE,34,0.0,3.6,49,0.00,,,0.00,WUHU216WMR968SP,2013-12-18 15:35:00,
2013-12-18 07:40:00,58.3,39.2,30.07,North,10,4.0,4.0,49,0.00,,,0.00,WUHU216WMR968SP,2013-12-18 15:40:00,
2013-12-18 07:45:00,58.8,39.7,30.07,North,357,5.8,7.2,49,0.00,,,0.00,WUHU216WMR968SP,2013-12-18 15:45:00,
2013-12-18 07:50:00,59.5,40.3,30.07,North,8,6.3,8.1,49,0.00,,,0.00,WUHU216WMR968SP,2013-12-18 15:50:00,
2013-12-18 07:55:00,59.7,39.4,30.07,NNE,17,4.5,8.1,47,0.00,,,0.00,WUHU216WMR968SP,2013-12-18 15:55:00,
2013-12-18 08:00:00,59.5,40.3,30.04,NNE,16,7.6,11.0,49,0.00,,,0.00,WUHU216WMR968SP,2013-12-18 16:00:00,
2013-12-18 08:05:00,59.7,40.5,30.04,North,7,4.0,11.0,49,0.00,,,0.00,WUHU216WMR968SP,2013-12-18 16:05:00,
2013-12-18 08:10:00,60.1,39.8,30.04,WSW,253,2.2,11.0,47,0.00,,,0.00,WUHU216WMR968SP,2013-12-18 16:10:00,
2013-12-18 08:15:00,60.3,41.0,30.04,WSW,239,4.9,10.5,49,0.00,,,0.00,WUHU216WMR968SP,2013-12-18 16:15:00,
2013-12-18 08:20:00,59.7,40.5,30.04,North,353,2.7,9.2,49,0.00,,,0.00,WUHU216WMR968SP,2013-12-18 16:20:00,
2013-12-18 08:25:00,59.7,40.5,30.04,WSW,243,3.6,8.1,49,0.00,,,0.00,WUHU216WMR968SP,2013-12-18 16:25:00,
2013-12-18 08:30:00,59.7,40.5,30.07,NW,321,2.2,8.1,49,0.00,,,0.00,WUHU216WMR968SP,2013-12-18 16:30:00,
2013-12-18 08:35:00,59.4,40.2,30.07,WNW,301,0.0,8.1,49,0.00,,,0.00,WUHU216WMR968SP,2013-12-18 16:35:00,
2013-12-18 08:40:00,59.4,41.8,30.07,WNW,301,0.0,3.6,52,0.00,,,0.00,WUHU216WMR968SP,2013-12-18 16:40:00,
2013-12-18 08:45:00,59.4,41.8,30.07,NE,50,0.0,0.0,52,0.00,,,0.00,WUHU216WMR968SP,2013-12-18 16:45:00,
2013-12-18 08:50:00,59.4,41.8,30.07,NE,52,0.0,0.0,52,0.00,,,0.00,WUHU216WMR968SP,2013-12-18 16:50:00,
2013-12-18 08:55:00,59.4,41.8,30.07,NE,52,0.0,0.0,52,0.00,,,0.00,WUHU216WMR968SP,2013-12-18 16:55:00,
2013-12-18 09:00:00,59.4,41.8,30.07,NE,52,0.0,0.0,52,0.00,,,0.00,WUHU216WMR968SP,2013-12-18 17:00:00,
2013-12-18 09:05:00,59.5,41.9,30.07,NE,52,0.0,0.0,52,0.00,,,0.00,WUHU216WMR968SP,2013-12-18 17:05:00,
2013-12-18 09:10:00,59.9,42.3,30.07,ENE,60,0.0,0.0,52,0.00,,,0.00,WUHU216WMR968SP,2013-12-18 17:10:00,
2013-12-18 09:15:00,60.3,42.6,30.07,SSW,196,0.0,0.0,52,0.00,,,0.00,WUHU216WMR968SP,2013-12-18 17:15:00,
2013-12-18 09:20:00,60.8,42.6,30.07,SSW,195,2.7,4.0,51,0.00,,,0.00,WUHU216WMR968SP,2013-12-18 17:20:00,
2013-12-18 09:25:00,61.3,43.0,30.07,South,187,2.7,4.0,51,0.00,,,0.00,WUHU216WMR968SP,2013-12-18 17:25:00,
2013-12-18 09:30:00,61.7,43.4,30.07,South,180,0.0,4.0,51,0.00,,,0.00,WUHU216WMR968SP,2013-12-18 17:30:00,
2013-12-18 09:35:00,61.9,43.6,30.07,South,171,2.7,4.0,51,0.00,,,0.00,WUHU216WMR968SP,2013-12-18 17:35:00,
2013-12-18 09:40:00,62.1,43.8,30.07,SSW,198,0.0,4.0,51,0.00,,,0.00,WUHU216WMR968SP,2013-12-18 17:40:00,
2013-12-18 09:45:00,61.9,43.6,30.07,SSW,209,0.0,3.1,51,0.00,,,0.00,WUHU216WMR968SP,2013-12-18 17:45:00,
2013-12-18 09:50:00,62.1,43.8,30.07,East,99,2.7,3.6,51,0.00,,,0.00,WUHU216WMR968SP,2013-12-18 17:50:00,
2013-12-18 09:55:00,62.2,43.9,30.07,SSW,204,3.1,3.6,51,0.00,,,0.00,WUHU216WMR968SP,2013-12-18 17:55:00,
2013-12-18 10:00:00,62.4,44.1,30.07,East,90,2.7,4.0,51,0.00,,,0.00,WUHU216WMR968SP,2013-12-18 18:00:00,
2013-12-18 10:05:00,62.6,44.3,30.07,ESE,120,0.0,4.0,51,0.00,,,0.00,WUHU216WMR968SP,2013-12-18 18:05:00,
2013-12-18 10:10:00,62.6,45.3,30.07,East,92,0.0,3.6,53,0.00,,,0.00,WUHU216WMR968SP,2013-12-18 18:10:00,
2013-12-18 10:15:00,62.6,45.3,30.07,East,92,2.2,3.6,53,0.00,,,0.00,WUHU216WMR968SP,2013-12-18 18:15:00,
2013-12-18 10:20:00,62.6,45.3,30.07,SE,133,2.2,4.0,53,0.00,,,0.00,WUHU216WMR968SP,2013-12-18 18:20:00,
2013-12-18 10:25:00,62.8,45.5,30.07,ESE,115,0.0,4.0,53,0.00,,,0.00,WUHU216WMR968SP,2013-12-18 18:25:00,
2013-12-18 10:30:00,62.8,44.4,30.04,ESE,110,0.0,2.7,51,0.00,,,0.00,WUHU216WMR968SP,2013-12-18 18:30:00,
2013-12-18 10:35:00,63.0,44.6,30.04,ESE,110,0.0,2.7,51,0.00,,,0.00,WUHU216WMR968SP,2013-12-18 18:35:00,
2013-12-18 10:40:00,63.1,44.7,30.04,ESE,109,0.0,2.2,51,0.00,,,0.00,WUHU216WMR968SP,2013-12-18 18:40:00,
2013-12-18 10:45:00,63.5,45.1,30.04,ENE,61,0.0,0.0,51,0.00,,,0.00,WUHU216WMR968SP,2013-12-18 18:45:00,
2013-12-18 10:50:00,64.0,43.9,30.04,SE,125,0.0,0.0,48,0.00,,,0.00,WUHU216WMR968SP,2013-12-18 18:50:00,
2013-12-18 10:55:00,64.2,44.1,30.04,South,178,0.0,0.0,48,0.00,,,0.00,WUHU216WMR968SP,2013-12-18 18:55:00,
2013-12-18 11:00:00,64.4,44.3,30.04,South,178,0.0,0.0,48,0.00,,,0.00,WUHU216WMR968SP,2013-12-18 19:00:00,
2013-12-18 11:05:00,65.1,44.9,30.04,NNE,24,0.0,2.7,48,0.00,,,0.00,WUHU216WMR968SP,2013-12-18 19:05:00,
2013-12-18 11:10:00,65.8,45.6,30.04,NNE,30,4.5,5.8,48,0.00,,,0.00,WUHU216WMR968SP,2013-12-18 19:10:00,
2013-12-18 11:15:00,66.7,45.8,30.01,North,8,4.0,7.6,47,0.00,,,0.00,WUHU216WMR968SP,2013-12-18 19:15:00,
2013-12-18 11:20:00,67.6,46.6,30.01,North,350,2.7,7.6,47,0.00,,,0.00,WUHU216WMR968SP,2013-12-18 19:20:00,
2013-12-18 11:25:00,68.5,46.3,30.01,NE,38,3.6,8.1,45,0.00,,,0.00,WUHU216WMR968SP,2013-12-18 19:25:00,
2013-12-18 11:30:00,69.1,46.8,30.01,NE,38,2.7,8.1,45,0.00,,,0.00,WUHU216WMR968SP,2013-12-18 19:30:00,
2013-12-18 11:35:00,69.3,47.0,30.01,NNE,16,2.7,5.4,45,0.00,,,0.00,WUHU216WMR968SP,2013-12-18 19:35:00,
2013-12-18 11:40:00,69.3,47.0,30.01,North,357,2.2,3.6,45,0.00,,,0.00,WUHU216WMR968SP,2013-12-18 19:40:00,
2013-12-18 11:45:00,69.1,46.8,30.01,NW,309,0.0,3.6,45,0.00,,,0.00,WUHU216WMR968SP,2013-12-18 19:45:00,
2013-12-18 11:50:00,69.4,47.1,30.01,North,357,0.0,5.4,45,0.00,,,0.00,WUHU216WMR968SP,2013-12-18 19:50:00,
2013-12-18 11:55:00,69.4,47.1,30.01,West,266,2.7,5.4,45,0.00,,,0.00,WUHU216WMR968SP,2013-12-18 19:55:00,
2013-12-18 12:00:00,69.6,47.3,30.01,South,173,2.7,5.4,45,0.00,,,0.00,WUHU216WMR968SP,2013-12-18 20:00:00,
2013-12-18 12:05:00,70.0,47.0,30.01,SW,217,4.0,7.6,44,0.00,,,0.00,WUHU216WMR968SP,2013-12-18 20:05:00,
2013-12-18 12:10:00,70.2,47.2,30.01,SSW,207,3.1,7.6,44,0.00,,,0.00,WUHU216WMR968SP,2013-12-18 20:10:00,
2013-12-18 12:15:00,70.3,47.3,30.01,SW,230,4.0,6.3,44,0.00,,,0.00,WUHU216WMR968SP,2013-12-18 20:15:00,
2013-12-18 12:20:00,70.2,47.2,30.01,SW,220,4.5,6.3,44,0.00,,,0.00,WUHU216WMR968SP,2013-12-18 20:20:00,
2013-12-18 12:25:00,70.2,47.2,30.01,South,184,3.1,8.7,44,0.00,,,0.00,WUHU216WMR968SP,2013-12-18 20:25:00,
2013-12-18 12:30:00,70.2,47.2,30.01,West,275,4.0,8.7,44,0.00,,,0.00,WUHU216WMR968SP,2013-12-18 20:30:00,
2013-12-18 12:35:00,69.6,47.3,30.01,SE,136,3.1,7.2,45,0.00,,,0.00,WUHU216WMR968SP,2013-12-18 20:35:00,
2013-12-18 12:40:00,69.4,47.1,30.01,WSW,248,2.7,4.9,45,0.00,,,0.00,WUHU216WMR968SP,2013-12-18 20:40:00,
2013-12-18 12:45:00,69.3,47.0,29.98,SW,220,2.2,3.6,45,0.00,,,0.00,WUHU216WMR968SP,2013-12-18 20:45:00,
2013-12-18 12:50:00,69.4,47.1,29.98,SE,131,0.0,3.6,45,0.00,,,0.00,WUHU216WMR968SP,2013-12-18 20:50:00,
2013-12-18 12:56:00,69.8,46.8,29.98,South,186,0.0,5.4,44,0.00,,,0.00,WUHU216WMR968SP,2013-12-18 20:56:00,
2013-12-18 13:01:00,69.8,46.8,29.98,SSE,162,2.2,5.4,44,0.00,,,0.00,WUHU216WMR968SP,2013-12-18 21:01:00,
2013-12-18 13:06:00,69.8,46.8,29.98,SSE,163,2.7,3.6,44,0.00,,,0.00,WUHU216WMR968SP,2013-12-18 21:06:00,
2013-12-18 13:11:00,70.0,47.0,29.98,WSW,244,2.7,4.9,44,0.00,,,0.00,WUHU216WMR968SP,2013-12-18 21:11:00,
2013-12-18 13:16:00,69.8,46.8,29.95,WSW,243,3.1,5.8,44,0.00,,,0.00,WUHU216WMR968SP,2013-12-18 21:16:00,
2013-12-18 13:21:00,70.0,47.0,29.95,SSW,208,3.1,5.8,44,0.00,,,0.00,WUHU216WMR968SP,2013-12-18 21:21:00,
2013-12-18 13:26:00,70.0,47.0,29.95,SE,134,4.0,5.8,44,0.00,,,0.00,WUHU216WMR968SP,2013-12-18 21:26:00,
2013-12-18 13:31:00,70.0,47.0,29.95,SW,224,3.6,6.3,44,0.00,,,0.00,WUHU216WMR968SP,2013-12-18 21:31:00,
2013-12-18 13:36:00,69.8,46.8,29.95,ESE,119,2.7,6.3,44,0.00,,,0.00,WUHU216WMR968SP,2013-12-18 21:36:00,
2013-12-18 13:41:00,69.4,47.1,29.95,South,183,2.2,6.3,45,0.00,,,0.00,WUHU216WMR968SP,2013-12-18 21:41:00,
2013-12-18 13:46:00,69.6,47.3,29.95,South,187,2.7,4.0,45,0.00,,,0.00,WUHU216WMR968SP,2013-12-18 21:46:00,
2013-12-18 13:51:00,69.6,47.3,29.95,SSW,192,3.6,4.9,45,0.00,,,0.00,WUHU216WMR968SP,2013-12-18 21:51:00,
2013-12-18 13:56:00,69.6,47.3,29.95,South,173,0.0,4.9,45,0.00,,,0.00,WUHU216WMR968SP,2013-12-18 21:56:00,
2013-12-18 14:01:00,69.6,47.3,29.95,South,173,2.2,4.0,45,0.00,,,0.00,WUHU216WMR968SP,2013-12-18 22:01:00,
2013-12-18 14:06:00,69.4,47.1,29.95,ESE,105,2.7,4.9,45,0.00,,,0.00,WUHU216WMR968SP,2013-12-18 22:06:00,
2013-12-18 14:11:00,69.4,47.1,29.95,SSW,201,4.0,4.9,45,0.00,,,0.00,WUHU216WMR968SP,2013-12-18 22:11:00,
2013-12-18 14:16:00,69.3,47.0,29.95,SSW,193,2.7,4.9,45,0.00,,,0.00,WUHU216WMR968SP,2013-12-18 22:16:00,
2013-12-18 14:21:00,69.4,47.1,29.95,SSE,161,4.0,4.9,45,0.00,,,0.00,WUHU216WMR968SP,2013-12-18 22:21:00,
2013-12-18 14:26:00,69.4,47.1,29.95,WSW,237,3.6,4.9,45,0.00,,,0.00,WUHU216WMR968SP,2013-12-18 22:26:00,
2013-12-18 14:31:00,69.4,47.1,29.95,SW,236,4.5,7.2,45,0.00,,,0.00,WUHU216WMR968SP,2013-12-18 22:31:00,
2013-12-18 14:36:00,69.1,46.8,29.95,SW,223,4.9,8.1,45,0.00,,,0.00,WUHU216WMR968SP,2013-12-18 22:36:00,
2013-12-18 14:41:00,68.7,46.5,29.95,South,170,4.9,8.1,45,0.00,,,0.00,WUHU216WMR968SP,2013-12-18 22:41:00,
2013-12-18 14:46:00,67.8,46.8,29.95,WNW,283,4.0,8.7,47,0.00,,,0.00,WUHU216WMR968SP,2013-12-18 22:46:00,
2013-12-18 14:51:00,67.3,46.4,29.95,SW,235,2.7,8.7,47,0.00,,,0.00,WUHU216WMR968SP,2013-12-18 22:51:00,
2013-12-18 14:56:00,67.1,46.2,29.95,West,274,4.5,6.7,47,0.00,,,0.00,WUHU216WMR968SP,2013-12-18 22:56:00,
2013-12-18 15:01:00,66.6,47.4,29.95,West,278,3.6,6.7,50,0.00,,,0.00,WUHU216WMR968SP,2013-12-18 23:01:00,
2013-12-18 15:06:00,66.2,48.1,29.95,WNW,287,3.6,8.1,52,0.00,,,0.00,WUHU216WMR968SP,2013-12-18 23:06:00,
2013-12-18 15:11:00,65.8,48.3,29.95,SW,214,3.6,8.1,53,0.00,,,0.00,WUHU216WMR968SP,2013-12-18 23:11:00,
2013-12-18 15:16:00,65.7,48.7,29.95,WSW,247,4.0,6.3,54,0.00,,,0.00,WUHU216WMR968SP,2013-12-18 23:16:00,
2013-12-18 15:21:00,65.5,48.5,29.95,WSW,249,3.6,5.8,54,0.00,,,0.00,WUHU216WMR968SP,2013-12-18 23:21:00,
2013-12-18 15:26:00,65.1,48.1,29.95,WSW,241,3.6,5.8,54,0.00,,,0.00,WUHU216WMR968SP,2013-12-18 23:26:00,
2013-12-18 15:31:00,64.8,47.9,29.95,SSW,210,3.6,5.4,54,0.00,,,0.00,WUHU216WMR968SP,2013-12-18 23:31:00,
2013-12-18 15:36:00,64.6,48.2,29.95,SSW,192,2.7,5.8,55,0.00,,,0.00,WUHU216WMR968SP,2013-12-18 23:36:00,
2013-12-18 15:41:00,64.4,48.0,29.95,SW,216,4.0,5.8,55,0.00,,,0.00,WUHU216WMR968SP,2013-12-18 23:41:00,
2013-12-18 15:46:00,64.2,47.8,29.95,SSE,162,4.0,6.3,55,0.00,,,0.00,WUHU216WMR968SP,2013-12-18 23:46:00,
2013-12-18 15:51:00,64.2,47.8,29.95,SW,216,3.6,6.3,55,0.00,,,0.00,WUHU216WMR968SP,2013-12-18 23:51:00,
2013-12-18 15:56:00,63.9,47.5,29.95,WSW,242,2.7,5.4,55,0.00,,,0.00,WUHU216WMR968SP,2013-12-18 23:56:00,
2013-12-18 16:01:00,63.9,48.0,29.95,ESE,120,0.0,5.4,56,0.00,,,0.00,WUHU216WMR968SP,2013-12-19 00:01:00,
2013-12-18 16:06:00,63.7,47.8,29.95,South,171,3.6,5.4,56,0.00,,,0.00,WUHU216WMR968SP,2013-12-19 00:06:00,
2013-12-18 16:11:00,63.5,47.6,29.95,SSW,209,3.1,5.8,56,0.00,,,0.00,WUHU216WMR968SP,2013-12-19 00:11:00,
2013-12-18 16:16:00,63.1,47.3,29.95,SE,146,2.7,5.8,56,0.00,,,0.00,WUHU216WMR968SP,2013-12-19 00:16:00,
2013-12-18 16:21:00,63.1,47.3,29.95,SE,141,3.1,5.4,56,0.00,,,0.00,WUHU216WMR968SP,2013-12-19 00:21:00,
2013-12-18 16:26:00,62.8,47.5,29.95,SE,125,3.1,5.4,57,0.00,,,0.00,WUHU216WMR968SP,2013-12-19 00:26:00,
2013-12-18 16:31:00,62.6,47.3,29.95,South,183,2.2,4.9,57,0.00,,,0.00,WUHU216WMR968SP,2013-12-19 00:31:00,
2013-12-18 16:36:00,62.4,47.6,29.95,SSE,156,2.2,5.4,58,0.00,,,0.00,WUHU216WMR968SP,2013-12-19 00:36:00,
2013-12-18 16:41:00,62.1,47.7,29.95,ESE,119,0.0,5.4,59,0.00,,,0.00,WUHU216WMR968SP,2013-12-19 00:41:00,
2013-12-18 16:46:00,61.9,47.5,29.92,ESE,119,0.0,4.0,59,0.00,,,0.00,WUHU216WMR968SP,2013-12-19 00:46:00,
2013-12-18 16:51:00,61.7,47.8,29.92,ESE,107,0.0,4.0,60,0.00,,,0.00,WUHU216WMR968SP,2013-12-19 00:51:00,
2013-12-18 16:56:00,61.5,47.6,29.92,ESE,103,0.0,4.0,60,0.00,,,0.00,WUHU216WMR968SP,2013-12-19 00:56:00,
2013-12-18 17:01:00,61.3,47.9,29.92,East,88,0.0,5.8,61,0.00,,,0.00,WUHU216WMR968SP,2013-12-19 01:01:00,
2013-12-18 17:06:00,61.2,48.2,29.92,SE,133,0.0,5.8,62,0.00,,,0.00,WUHU216WMR968SP,2013-12-19 01:06:00,
2013-12-18 17:11:00,61.2,48.7,29.92,South,181,0.0,3.1,63,0.00,,,0.00,WUHU216WMR968SP,2013-12-19 01:11:00,
2013-12-18 17:16:00,61.0,48.5,29.92,SSW,197,0.0,3.6,63,0.00,,,0.00,WUHU216WMR968SP,2013-12-19 01:16:00,
2013-12-18 17:21:00,61.0,48.9,29.92,SW,219,0.0,3.6,64,0.00,,,0.00,WUHU216WMR968SP,2013-12-19 01:21:00,
2013-12-18 17:26:00,61.0,48.9,29.92,South,183,0.0,4.0,64,0.00,,,0.00,WUHU216WMR968SP,2013-12-19 01:26:00,
2013-12-18 17:31:00,60.8,48.7,29.92,West,261,2.7,5.4,64,0.00,,,0.00,WUHU216WMR968SP,2013-12-19 01:31:00,
2013-12-18 17:36:00,60.8,48.7,29.92,WSW,245,3.1,6.3,64,0.00,,,0.00,WUHU216WMR968SP,2013-12-19 01:36:00,
2013-12-18 17:41:00,60.6,48.5,29.92,SSW,199,2.2,6.3,64,0.00,,,0.00,WUHU216WMR968SP,2013-12-19 01:41:00,
2013-12-18 17:46:00,60.6,48.9,29.92,SW,221,3.1,5.8,65,0.00,,,0.00,WUHU216WMR968SP,2013-12-19 01:46:00,
2013-12-18 17:51:00,60.4,48.7,29.92,West,263,3.6,8.1,65,0.00,,,0.00,WUHU216WMR968SP,2013-12-19 01:51:00,
2013-12-18 17:56:00,60.1,49.3,29.92,SW,231,2.7,8.1,67,0.00,,,0.00,WUHU216WMR968SP,2013-12-19 01:56:00,
2013-12-18 18:01:00,59.5,48.7,29.92,SW,232,4.5,8.3,67,0.00,,,0.00,WUHU216WMR968SP,2013-12-19 02:01:00,
2013-12-18 18:06:00,59.4,49.0,29.92,West,263,4.5,8.3,68,0.00,,,0.00,WUHU216WMR968SP,2013-12-19 02:06:00,
2013-12-18 18:11:00,59.2,48.8,29.92,SSW,211,3.6,7.6,68,0.00,,,0.00,WUHU216WMR968SP,2013-12-19 02:11:00,
2013-12-18 18:16:00,59.0,49.0,29.92,WSW,239,5.8,6.3,69,0.00,,,0.00,WUHU216WMR968SP,2013-12-19 02:16:00,
2013-12-18 18:21:00,58.8,48.8,29.92,SSW,199,4.5,7.6,69,0.00,,,0.00,WUHU216WMR968SP,2013-12-19 02:21:00,
2013-12-18 18:26:00,58.6,48.6,29.92,SW,218,2.2,7.6,69,0.00,,,0.00,WUHU216WMR968SP,2013-12-19 02:26:00,
2013-12-18 18:31:00,58.5,48.9,29.95,WSW,247,3.6,6.3,70,0.00,,,0.00,WUHU216WMR968SP,2013-12-19 02:31:00,
2013-12-18 18:36:00,58.5,48.5,29.95,WSW,245,2.7,6.3,69,0.00,,,0.00,WUHU216WMR968SP,2013-12-19 02:36:00,
2013-12-18 18:41:00,58.5,48.5,29.95,SW,234,2.7,6.3,69,0.00,,,0.00,WUHU216WMR968SP,2013-12-19 02:41:00,
2013-12-18 18:46:00,58.5,48.1,29.95,SSE,168,3.6,6.3,68,0.00,,,0.00,WUHU216WMR968SP,2013-12-19 02:46:00,
2013-12-18 18:51:00,58.3,47.9,29.95,South,180,0.0,5.8,68,0.00,,,0.00,WUHU216WMR968SP,2013-12-19 02:51:00,
2013-12-18 18:56:00,58.3,47.5,29.95,ESE,114,0.0,5.8,67,0.00,,,0.00,WUHU216WMR968SP,2013-12-19 02:56:00,
2013-12-18 19:01:00,58.1,47.3,29.95,SSE,158,3.1,5.8,67,0.00,,,0.00,WUHU216WMR968SP,2013-12-19 03:01:00,
2013-12-18 19:06:00,57.9,47.1,29.95,SE,129,0.0,5.4,67,0.00,,,0.00,WUHU216WMR968SP,2013-12-19 03:06:00,
2013-12-18 19:11:00,57.7,47.0,29.95,SSE,153,0.0,3.6,67,0.00,,,0.00,WUHU216WMR968SP,2013-12-19 03:11:00,
2013-12-18 19:16:00,57.6,46.9,29.95,South,178,0.0,3.6,67,0.00,,,0.00,WUHU216WMR968SP,2013-12-19 03:16:00,
2013-12-18 19:21:00,57.4,46.7,29.95,SSW,195,3.1,4.5,67,0.00,,,0.00,WUHU216WMR968SP,2013-12-19 03:21:00,
2013-12-18 19:26:00,57.2,46.5,29.95,SSW,204,2.2,4.5,67,0.00,,,0.00,WUHU216WMR968SP,2013-12-19 03:26:00,
2013-12-18 19:31:00,57.2,46.5,29.95,SW,221,3.1,4.0,67,0.00,,,0.00,WUHU216WMR968SP,2013-12-19 03:31:00,
2013-12-18 19:36:00,57.2,46.9,29.95,SSE,165,2.2,4.5,68,0.00,,,0.00,WUHU216WMR968SP,2013-12-19 03:36:00,
2013-12-18 19:41:00,57.0,46.7,29.95,SW,215,2.7,4.5,68,0.00,,,0.00,WUHU216WMR968SP,2013-12-19 03:41:00,
2013-12-18 19:46:00,57.0,46.7,29.95,South,170,2.2,4.0,68,0.00,,,0.00,WUHU216WMR968SP,2013-12-19 03:46:00,
2013-12-18 19:51:00,57.0,47.1,29.95,SE,130,2.2,4.9,69,0.00,,,0.00,WUHU216WMR968SP,2013-12-19 03:51:00,
2013-12-18 19:56:00,57.0,47.1,29.95,SE,124,0.0,4.9,69,0.00,,,0.00,WUHU216WMR968SP,2013-12-19 03:56:00,
2013-12-18 20:01:00,57.0,47.1,29.95,SE,124,0.0,3.6,69,0.00,,,0.00,WUHU216WMR968SP,2013-12-19 04:01:00,
2013-12-18 20:06:00,57.2,47.3,29.95,SSE,147,0.0,4.0,69,0.00,,,0.00,WUHU216WMR968SP,2013-12-19 04:06:00,
2013-12-18 20:11:00,57.2,47.3,29.95,South,171,2.7,4.0,69,0.00,,,0.00,WUHU216WMR968SP,2013-12-19 04:11:00,
2013-12-18 20:16:00,57.2,47.3,29.95,South,178,0.0,3.6,69,0.00,,,0.00,WUHU216WMR968SP,2013-12-19 04:16:00,
2013-12-18 20:21:00,57.2,47.3,29.95,SE,144,0.0,3.1,69,0.00,,,0.00,WUHU216WMR968SP,2013-12-19 04:21:00,
2013-12-18 20:26:00,57.0,47.1,29.95,South,185,0.0,3.6,69,0.00,,,0.00,WUHU216WMR968SP,2013-12-19 04:26:00,
2013-12-18 20:31:00,57.0,47.1,29.95,South,177,2.2,4.0,69,0.00,,,0.00,WUHU216WMR968SP,2013-12-19 04:31:00,
2013-12-18 20:36:00,56.8,46.9,29.95,SW,220,2.2,4.0,69,0.00,,,0.00,WUHU216WMR968SP,2013-12-19 04:36:00,
2013-12-18 20:41:00,56.8,46.9,29.95,SSW,210,0.0,4.0,69,0.00,,,0.00,WUHU216WMR968SP,2013-12-19 04:41:00,
2013-12-18 20:46:00,56.8,46.9,29.95,SSW,210,0.0,3.1,69,0.00,,,0.00,WUHU216WMR968SP,2013-12-19 04:46:00,
2013-12-18 20:51:00,56.8,47.2,29.95,SSW,210,0.0,0.0,70,0.00,,,0.00,WUHU216WMR968SP,2013-12-19 04:51:00,
2013-12-18 20:56:00,56.8,47.2,29.95,SW,217,0.0,0.0,70,0.00,,,0.00,WUHU216WMR968SP,2013-12-19 04:56:00,
2013-12-18 21:01:00,56.8,47.6,29.95,NW,307,0.0,2.7,71,0.00,,,0.00,WUHU216WMR968SP,2013-12-19 05:01:00,
2013-12-18 21:06:00,56.8,47.6,29.95,SSE,167,0.0,4.0,71,0.00,,,0.00,WUHU216WMR968SP,2013-12-19 05:06:00,
2013-12-18 21:11:00,57.0,47.8,29.95,South,189,0.0,4.0,71,0.00,,,0.00,WUHU216WMR968SP,2013-12-19 05:11:00,
2013-12-18 21:16:00,56.8,47.6,29.95,SW,226,0.0,4.0,71,0.00,,,0.00,WUHU216WMR968SP,2013-12-19 05:16:00,
2013-12-18 21:21:00,57.0,47.8,29.95,SW,226,2.2,4.0,71,0.00,,,0.00,WUHU216WMR968SP,2013-12-19 05:21:00,
2013-12-18 21:26:00,57.0,47.8,29.95,WSW,237,0.0,4.0,71,0.00,,,0.00,WUHU216WMR968SP,2013-12-19 05:26:00,
2013-12-18 21:31:00,57.0,47.8,29.95,WSW,237,0.0,4.0,71,0.00,,,0.00,WUHU216WMR968SP,2013-12-19 05:31:00,
2013-12-18 21:36:00,56.8,47.6,29.95,WSW,237,0.0,3.6,71,0.00,,,0.00,WUHU216WMR968SP,2013-12-19 05:36:00,
2013-12-18 21:41:00,57.0,47.8,29.98,WSW,237,0.0,3.6,71,0.00,,,0.00,WUHU216WMR968SP,2013-12-19 05:41:00,
2013-12-18 21:46:00,57.2,47.6,29.98,SW,214,0.0,0.0,70,0.00,,,0.00,WUHU216WMR968SP,2013-12-19 05:46:00,
2013-12-18 21:51:00,57.2,47.6,29.98,SW,217,0.0,3.6,70,0.00,,,0.00,WUHU216WMR968SP,2013-12-19 05:51:00,
2013-12-18 21:56:00,57.2,47.3,29.98,SSW,209,0.0,3.6,69,0.00,,,0.00,WUHU216WMR968SP,2013-12-19 05:56:00,
2013-12-18 22:01:00,57.2,47.3,29.98,WSW,249,0.0,3.6,69,0.00,,,0.00,WUHU216WMR968SP,2013-12-19 06:01:00,
2013-12-18 22:06:00,57.2,47.3,29.98,SW,219,0.0,3.6,69,0.00,,,0.00,WUHU216WMR968SP,2013-12-19 06:06:00,
2013-12-18 22:11:00,57.2,47.3,29.98,South,169,0.0,3.1,69,0.00,,,0.00,WUHU216WMR968SP,2013-12-19 06:11:00,
2013-12-18 22:16:00,57.0,47.1,29.98,South,176,0.0,3.1,69,0.00,,,0.00,WUHU216WMR968SP,2013-12-19 06:16:00,
2013-12-18 22:21:00,57.0,47.1,29.98,SSW,207,0.0,3.1,69,0.00,,,0.00,WUHU216WMR968SP,2013-12-19 06:21:00,
2013-12-18 22:26:00,57.0,47.1,29.98,SE,124,2.7,4.0,69,0.00,,,0.00,WUHU216WMR968SP,2013-12-19 06:26:00,
2013-12-18 22:31:00,56.8,46.9,29.98,SE,125,0.0,4.0,69,0.00,,,0.00,WUHU216WMR968SP,2013-12-19 06:31:00,
2013-12-18 22:36:00,56.8,46.9,29.98,SE,125,0.0,2.7,69,0.00,,,0.00,WUHU216WMR968SP,2013-12-19 06:36:00,
2013-12-18 22:41:00,56.8,46.9,29.98,SE,125,0.0,0.0,69,0.00,,,0.00,WUHU216WMR968SP,2013-12-19 06:41:00,
2013-12-18 22:46:00,56.7,46.8,29.98,SE,125,0.0,0.0,69,0.00,,,0.00,WUHU216WMR968SP,2013-12-19 06:46:00,
2013-12-18 22:51:00,56.5,46.6,29.98,SE,125,0.0,0.0,69,0.00,,,0.00,WUHU216WMR968SP,2013-12-19 06:51:00,
2013-12-18 22:56:00,56.5,46.6,29.98,SE,125,0.0,0.0,69,0.00,,,0.00,WUHU216WMR968SP,2013-12-19 06:56:00,
2013-12-18 23:01:00,56.3,46.4,29.98,SE,125,0.0,0.0,69,0.00,,,0.00,WUHU216WMR968SP,2013-12-19 07:01:00,
2013-12-18 23:06:00,56.1,46.6,29.98,SE,125,0.0,0.0,70,0.00,,,0.00,WUHU216WMR968SP,2013-12-19 07:06:00,
2013-12-18 23:11:00,55.9,46.4,29.95,ENE,69,0.0,2.2,70,0.00,,,0.00,WUHU216WMR968SP,2013-12-19 07:11:00,
2013-12-18 23:16:00,55.9,46.4,29.95,ENE,73,0.0,2.7,70,0.00,,,0.00,WUHU216WMR968SP,2013-12-19 07:16:00,
2013-12-18 23:21:00,55.9,46.4,29.95,ESE,111,0.0,3.6,70,0.00,,,0.00,WUHU216WMR968SP,2013-12-19 07:21:00,
2013-12-18 23:26:00,55.9,46.4,29.95,ESE,117,0.0,4.0,70,0.00,,,0.00,WUHU216WMR968SP,2013-12-19 07:26:00,
2013-12-18 23:31:00,55.9,46.4,29.95,ESE,103,0.0,4.0,70,0.00,,,0.00,WUHU216WMR968SP,2013-12-19 07:31:00,
2013-12-18 23:36:00,55.9,46.4,29.95,ESE,112,0.0,4.0,70,0.00,,,0.00,WUHU216WMR968SP,2013-12-19 07:36:00,
2013-12-18 23:41:00,55.9,46.4,29.95,SE,137,2.2,2.7,70,0.00,,,0.00,WUHU216WMR968SP,2013-12-19 07:41:00,
2013-12-18 23:46:00,55.9,46.4,29.95,South,184,0.0,3.6,70,0.00,,,0.00,WUHU216WMR968SP,2013-12-19 07:46:00,
2013-12-18 23:51:00,55.9,46.4,29.95,SSE,149,2.2,3.6,70,0.00,,,0.00,WUHU216WMR968SP,2013-12-19 07:51:00,
2013-12-18 23:56:00,55.9,46.4,29.95,South,172,3.1,5.4,70,0.00,,,0.00,WUHU216WMR968SP,2013-12-19 07:56:00,